sensor_id;sensor_type;location;lat;lon;timestamp;temperature;humidity
84916;DHT22;75178;53.054;5.846;2024-01-30T00:02:13;5.90;99.90
84916;DHT22;75178;53.054;5.846;2024-01-30T00:04:57;5.90;99.90
84916;DHT22;75178;53.054;5.846;2024-01-30T00:07:43;5.90;99.90
84916;DHT22;75178;53.054;5.846;2024-01-30T00:10:27;5.80;99.90
84916;DHT22;75178;53.054;5.846;2024-01-30T00:13:11;5.80;99.90
84916;DHT22;75178;53.054;5.846;2024-01-30T00:15:55;5.80;99.90
84916;DHT22;75178;53.054;5.846;2024-01-30T00:18:39;5.80;99.90
84916;DHT22;75178;53.054;5.846;2024-01-30T00:21:23;5.80;99.90
84916;DHT22;75178;53.054;5.846;2024-01-30T00:24:09;5.80;99.90
84916;DHT22;75178;53.054;5.846;2024-01-30T00:26:54;5.80;99.90
84916;DHT22;75178;53.054;5.846;2024-01-30T00:29:38;5.80;99.90
84916;DHT22;75178;53.054;5.846;2024-01-30T00:32:22;5.80;99.90
84916;DHT22;75178;53.054;5.846;2024-01-30T00:35:06;5.90;99.90
84916;DHT22;75178;53.054;5.846;2024-01-30T00:37:51;5.80;99.90
84916;DHT22;75178;53.054;5.846;2024-01-30T00:40:36;5.80;99.90
84916;DHT22;75178;53.054;5.846;2024-01-30T00:43:20;5.80;99.90
84916;DHT22;75178;53.054;5.846;2024-01-30T00:46:04;5.80;99.90
84916;DHT22;75178;53.054;5.846;2024-01-30T00:48:49;5.80;99.90
84916;DHT22;75178;53.054;5.846;2024-01-30T00:51:33;5.80;99.90
84916;DHT22;75178;53.054;5.846;2024-01-30T00:54:17;5.80;99.90
84916;DHT22;75178;53.054;5.846;2024-01-30T00:57:03;5.80;99.90
84916;DHT22;75178;53.054;5.846;2024-01-30T00:59:47;5.80;99.90
84916;DHT22;75178;53.054;5.846;2024-01-30T01:02:31;5.80;99.90
84916;DHT22;75178;53.054;5.846;2024-01-30T01:05:15;5.70;99.90
84916;DHT22;75178;53.054;5.846;2024-01-30T01:08:00;5.80;99.90
84916;DHT22;75178;53.054;5.846;2024-01-30T01:10:44;5.70;99.90
84916;DHT22;75178;53.054;5.846;2024-01-30T01:13:29;5.70;99.90
84916;DHT22;75178;53.054;5.846;2024-01-30T01:16:13;5.60;99.90
84916;DHT22;75178;53.054;5.846;2024-01-30T01:18:57;5.70;99.90
84916;DHT22;75178;53.054;5.846;2024-01-30T01:21:41;5.70;99.90
84916;DHT22;75178;53.054;5.846;2024-01-30T01:24:26;5.70;99.90
84916;DHT22;75178;53.054;5.846;2024-01-30T01:27:10;5.60;99.90
84916;DHT22;75178;53.054;5.846;2024-01-30T01:29:55;5.60;99.90
84916;DHT22;75178;53.054;5.846;2024-01-30T01:32:40;5.60;99.90
84916;DHT22;75178;53.054;5.846;2024-01-30T01:35:24;5.60;99.90
84916;DHT22;75178;53.054;5.846;2024-01-30T01:38:09;5.60;99.90
84916;DHT22;75178;53.054;5.846;2024-01-30T01:40:53;5.60;99.90
84916;DHT22;75178;53.054;5.846;2024-01-30T01:43:37;5.60;99.90
84916;DHT22;75178;53.054;5.846;2024-01-30T01:46:23;5.60;99.90
84916;DHT22;75178;53.054;5.846;2024-01-30T01:49:08;5.60;99.90
84916;DHT22;75178;53.054;5.846;2024-01-30T01:51:54;5.70;99.90
84916;DHT22;75178;53.054;5.846;2024-01-30T01:54:39;5.70;99.90
84916;DHT22;75178;53.054;5.846;2024-01-30T01:57:24;5.70;99.90
84916;DHT22;75178;53.054;5.846;2024-01-30T02:00:09;5.70;99.90
84916;DHT22;75178;53.054;5.846;2024-01-30T02:02:56;5.70;99.90
84916;DHT22;75178;53.054;5.846;2024-01-30T02:05:41;5.70;99.90
84916;DHT22;75178;53.054;5.846;2024-01-30T02:08:26;5.80;99.90
84916;DHT22;75178;53.054;5.846;2024-01-30T02:11:11;5.80;99.90
84916;DHT22;75178;53.054;5.846;2024-01-30T02:13:56;5.80;99.90
84916;DHT22;75178;53.054;5.846;2024-01-30T02:16:40;5.80;99.90
84916;DHT22;75178;53.054;5.846;2024-01-30T02:19:25;5.80;99.90
84916;DHT22;75178;53.054;5.846;2024-01-30T02:22:11;5.80;99.90
84916;DHT22;75178;53.054;5.846;2024-01-30T02:24:55;5.80;99.90
84916;DHT22;75178;53.054;5.846;2024-01-30T02:27:39;5.90;99.90
84916;DHT22;75178;53.054;5.846;2024-01-30T02:30:23;5.90;99.90
84916;DHT22;75178;53.054;5.846;2024-01-30T02:33:07;5.90;99.90
84916;DHT22;75178;53.054;5.846;2024-01-30T02:35:52;5.90;99.90
84916;DHT22;75178;53.054;5.846;2024-01-30T02:38:37;5.90;99.90
84916;DHT22;75178;53.054;5.846;2024-01-30T02:41:21;5.90;99.90
84916;DHT22;75178;53.054;5.846;2024-01-30T02:44:05;5.90;99.90
84916;DHT22;75178;53.054;5.846;2024-01-30T02:46:50;5.90;99.90
84916;DHT22;75178;53.054;5.846;2024-01-30T02:49:34;5.90;99.90
84916;DHT22;75178;53.054;5.846;2024-01-30T02:52:18;5.90;99.90
84916;DHT22;75178;53.054;5.846;2024-01-30T02:55:04;5.90;99.90
84916;DHT22;75178;53.054;5.846;2024-01-30T02:57:48;6.00;99.90
84916;DHT22;75178;53.054;5.846;2024-01-30T03:00:32;5.90;99.90
84916;DHT22;75178;53.054;5.846;2024-01-30T03:03:17;5.90;99.90
84916;DHT22;75178;53.054;5.846;2024-01-30T03:06:01;5.90;99.90
84916;DHT22;75178;53.054;5.846;2024-01-30T03:08:45;5.90;99.90
84916;DHT22;75178;53.054;5.846;2024-01-30T03:11:30;5.80;99.90
84916;DHT22;75178;53.054;5.846;2024-01-30T03:14:14;5.80;99.90
84916;DHT22;75178;53.054;5.846;2024-01-30T03:16:58;5.80;99.90
84916;DHT22;75178;53.054;5.846;2024-01-30T03:19:43;5.90;99.90
84916;DHT22;75178;53.054;5.846;2024-01-30T03:22:27;5.90;99.90
84916;DHT22;75178;53.054;5.846;2024-01-30T03:25:11;5.90;99.90
84916;DHT22;75178;53.054;5.846;2024-01-30T03:27:56;5.90;99.90
84916;DHT22;75178;53.054;5.846;2024-01-30T03:30:41;6.00;99.90
84916;DHT22;75178;53.054;5.846;2024-01-30T03:33:25;6.00;99.90
84916;DHT22;75178;53.054;5.846;2024-01-30T03:36:10;5.90;99.90
84916;DHT22;75178;53.054;5.846;2024-01-30T03:38:54;5.90;99.90
84916;DHT22;75178;53.054;5.846;2024-01-30T03:41:42;5.90;99.90
84916;DHT22;75178;53.054;5.846;2024-01-30T03:44:27;5.90;99.90
84916;DHT22;75178;53.054;5.846;2024-01-30T03:47:12;5.90;99.90
84916;DHT22;75178;53.054;5.846;2024-01-30T03:49:56;5.90;99.90
84916;DHT22;75178;53.054;5.846;2024-01-30T03:52:40;6.00;99.90
84916;DHT22;75178;53.054;5.846;2024-01-30T03:55:24;6.00;99.90
84916;DHT22;75178;53.054;5.846;2024-01-30T03:58:08;6.00;99.90
84916;DHT22;75178;53.054;5.846;2024-01-30T04:00:53;6.00;99.90
84916;DHT22;75178;53.054;5.846;2024-01-30T04:03:38;6.00;99.90
84916;DHT22;75178;53.054;5.846;2024-01-30T04:06:22;6.00;99.90
84916;DHT22;75178;53.054;5.846;2024-01-30T04:09:06;6.00;99.90
84916;DHT22;75178;53.054;5.846;2024-01-30T04:11:50;6.10;99.90
84916;DHT22;75178;53.054;5.846;2024-01-30T04:14:34;6.10;99.90
84916;DHT22;75178;53.054;5.846;2024-01-30T04:17:20;6.10;99.90
84916;DHT22;75178;53.054;5.846;2024-01-30T04:20:05;6.10;99.90
84916;DHT22;75178;53.054;5.846;2024-01-30T04:22:49;6.10;99.90
84916;DHT22;75178;53.054;5.846;2024-01-30T04:25:33;6.10;99.90
84916;DHT22;75178;53.054;5.846;2024-01-30T04:28:18;6.10;99.90
84916;DHT22;75178;53.054;5.846;2024-01-30T04:31:02;6.10;99.90
84916;DHT22;75178;53.054;5.846;2024-01-30T04:33:48;6.10;99.90
84916;DHT22;75178;53.054;5.846;2024-01-30T04:36:32;6.10;99.90
84916;DHT22;75178;53.054;5.846;2024-01-30T04:39:16;6.20;99.90
84916;DHT22;75178;53.054;5.846;2024-01-30T04:42:00;6.20;99.90
84916;DHT22;75178;53.054;5.846;2024-01-30T04:44:45;6.20;99.90
84916;DHT22;75178;53.054;5.846;2024-01-30T04:47:29;6.20;99.90
84916;DHT22;75178;53.054;5.846;2024-01-30T04:50:14;6.20;99.90
84916;DHT22;75178;53.054;5.846;2024-01-30T04:52:58;6.30;99.90
84916;DHT22;75178;53.054;5.846;2024-01-30T04:55:42;6.30;99.90
84916;DHT22;75178;53.054;5.846;2024-01-30T04:58:26;6.30;99.90
84916;DHT22;75178;53.054;5.846;2024-01-30T05:01:15;6.30;99.90
84916;DHT22;75178;53.054;5.846;2024-01-30T05:03:59;6.30;99.90
84916;DHT22;75178;53.054;5.846;2024-01-30T05:06:44;6.40;99.90
84916;DHT22;75178;53.054;5.846;2024-01-30T05:09:30;6.40;99.90
84916;DHT22;75178;53.054;5.846;2024-01-30T05:12:14;6.40;99.90
84916;DHT22;75178;53.054;5.846;2024-01-30T05:14:58;6.40;99.90
84916;DHT22;75178;53.054;5.846;2024-01-30T05:17:42;6.40;99.90
84916;DHT22;75178;53.054;5.846;2024-01-30T05:20:26;6.40;99.90
84916;DHT22;75178;53.054;5.846;2024-01-30T05:23:12;6.40;99.90
84916;DHT22;75178;53.054;5.846;2024-01-30T05:25:56;6.40;99.90
84916;DHT22;75178;53.054;5.846;2024-01-30T05:28:40;6.40;99.90
84916;DHT22;75178;53.054;5.846;2024-01-30T05:31:24;6.40;99.90
84916;DHT22;75178;53.054;5.846;2024-01-30T05:34:08;6.40;99.90
84916;DHT22;75178;53.054;5.846;2024-01-30T05:36:52;6.40;99.90
84916;DHT22;75178;53.054;5.846;2024-01-30T05:39:38;6.40;99.90
84916;DHT22;75178;53.054;5.846;2024-01-30T05:42:22;6.40;99.90
84916;DHT22;75178;53.054;5.846;2024-01-30T05:45:07;6.40;99.90
84916;DHT22;75178;53.054;5.846;2024-01-30T05:47:51;6.40;99.90
84916;DHT22;75178;53.054;5.846;2024-01-30T05:50:35;6.40;99.90
84916;DHT22;75178;53.054;5.846;2024-01-30T05:53:19;6.40;99.90
84916;DHT22;75178;53.054;5.846;2024-01-30T05:56:06;6.40;99.90
84916;DHT22;75178;53.054;5.846;2024-01-30T05:58:50;6.40;99.90
84916;DHT22;75178;53.054;5.846;2024-01-30T06:01:34;6.40;99.90
84916;DHT22;75178;53.054;5.846;2024-01-30T06:04:18;6.40;99.90
84916;DHT22;75178;53.054;5.846;2024-01-30T06:07:02;6.50;99.90
84916;DHT22;75178;53.054;5.846;2024-01-30T06:09:47;6.50;99.90
84916;DHT22;75178;53.054;5.846;2024-01-30T06:12:32;6.50;99.90
84916;DHT22;75178;53.054;5.846;2024-01-30T06:15:16;6.50;99.90
84916;DHT22;75178;53.054;5.846;2024-01-30T06:18:07;6.60;99.90
84916;DHT22;75178;53.054;5.846;2024-01-30T06:21:04;6.50;99.90
84916;DHT22;75178;53.054;5.846;2024-01-30T06:23:49;6.60;99.90
84916;DHT22;75178;53.054;5.846;2024-01-30T06:26:34;6.60;99.90
84916;DHT22;75178;53.054;5.846;2024-01-30T06:29:20;6.60;99.90
84916;DHT22;75178;53.054;5.846;2024-01-30T06:32:05;6.60;99.90
84916;DHT22;75178;53.054;5.846;2024-01-30T06:34:49;6.60;99.90
84916;DHT22;75178;53.054;5.846;2024-01-30T06:37:33;6.70;99.90
84916;DHT22;75178;53.054;5.846;2024-01-30T06:40:18;6.70;99.90
84916;DHT22;75178;53.054;5.846;2024-01-30T06:43:02;6.70;99.90
84916;DHT22;75178;53.054;5.846;2024-01-30T06:45:48;6.70;99.90
84916;DHT22;75178;53.054;5.846;2024-01-30T06:48:32;6.80;99.90
84916;DHT22;75178;53.054;5.846;2024-01-30T06:51:16;6.80;99.90
84916;DHT22;75178;53.054;5.846;2024-01-30T06:54:00;6.80;99.90
84916;DHT22;75178;53.054;5.846;2024-01-30T06:56:45;6.80;99.90
84916;DHT22;75178;53.054;5.846;2024-01-30T06:59:29;6.80;99.90
84916;DHT22;75178;53.054;5.846;2024-01-30T07:02:14;6.80;99.90
84916;DHT22;75178;53.054;5.846;2024-01-30T07:04:58;6.90;99.90
84916;DHT22;75178;53.054;5.846;2024-01-30T07:07:43;6.90;99.90
84916;DHT22;75178;53.054;5.846;2024-01-30T07:10:27;6.90;99.90
84916;DHT22;75178;53.054;5.846;2024-01-30T07:13:11;6.90;99.90
84916;DHT22;75178;53.054;5.846;2024-01-30T07:15:55;6.90;99.90
84916;DHT22;75178;53.054;5.846;2024-01-30T07:18:41;7.00;99.90
84916;DHT22;75178;53.054;5.846;2024-01-30T07:21:25;7.00;99.90
84916;DHT22;75178;53.054;5.846;2024-01-30T07:24:09;6.90;99.90
84916;DHT22;75178;53.054;5.846;2024-01-30T07:26:53;7.00;99.90
84916;DHT22;75178;53.054;5.846;2024-01-30T07:29:37;7.00;99.90
84916;DHT22;75178;53.054;5.846;2024-01-30T07:35:46;7.00;99.90
84916;DHT22;75178;53.054;5.846;2024-01-30T07:38:32;7.10;99.90
84916;DHT22;75178;53.054;5.846;2024-01-30T07:41:16;7.10;99.90
84916;DHT22;75178;53.054;5.846;2024-01-30T07:44:00;7.10;99.90
84916;DHT22;75178;53.054;5.846;2024-01-30T07:46:44;7.10;99.90
84916;DHT22;75178;53.054;5.846;2024-01-30T07:49:28;7.20;99.90
84916;DHT22;75178;53.054;5.846;2024-01-30T07:52:14;7.20;99.90
84916;DHT22;75178;53.054;5.846;2024-01-30T07:54:58;7.20;99.90
84916;DHT22;75178;53.054;5.846;2024-01-30T07:57:42;7.20;99.90
84916;DHT22;75178;53.054;5.846;2024-01-30T08:00:27;7.20;99.90
84916;DHT22;75178;53.054;5.846;2024-01-30T08:03:11;7.20;99.90
84916;DHT22;75178;53.054;5.846;2024-01-30T08:05:55;7.20;99.90
84916;DHT22;75178;53.054;5.846;2024-01-30T08:08:41;7.30;99.90
84916;DHT22;75178;53.054;5.846;2024-01-30T08:11:25;7.30;99.90
84916;DHT22;75178;53.054;5.846;2024-01-30T08:14:09;7.30;99.90
84916;DHT22;75178;53.054;5.846;2024-01-30T08:16:53;7.40;99.90
84916;DHT22;75178;53.054;5.846;2024-01-30T08:19:37;7.50;99.90
84916;DHT22;75178;53.054;5.846;2024-01-30T08:22:22;7.50;99.90
84916;DHT22;75178;53.054;5.846;2024-01-30T08:25:08;7.60;99.90
84916;DHT22;75178;53.054;5.846;2024-01-30T08:27:52;7.60;99.90
84916;DHT22;75178;53.054;5.846;2024-01-30T08:30:36;7.70;99.90
84916;DHT22;75178;53.054;5.846;2024-01-30T08:33:20;7.80;99.90
84916;DHT22;75178;53.054;5.846;2024-01-30T08:36:05;8.00;99.90
84916;DHT22;75178;53.054;5.846;2024-01-30T08:38:49;8.00;99.90
84916;DHT22;75178;53.054;5.846;2024-01-30T08:41:35;8.10;99.90
84916;DHT22;75178;53.054;5.846;2024-01-30T08:44:20;8.20;99.90
84916;DHT22;75178;53.054;5.846;2024-01-30T08:47:04;8.20;99.90
84916;DHT22;75178;53.054;5.846;2024-01-30T08:49:49;8.30;99.90
84916;DHT22;75178;53.054;5.846;2024-01-30T08:52:33;8.40;99.90
84916;DHT22;75178;53.054;5.846;2024-01-30T08:55:17;8.50;99.90
84916;DHT22;75178;53.054;5.846;2024-01-30T08:58:03;8.50;99.90
84916;DHT22;75178;53.054;5.846;2024-01-30T09:00:47;8.60;99.90
84916;DHT22;75178;53.054;5.846;2024-01-30T09:03:31;8.70;99.90
84916;DHT22;75178;53.054;5.846;2024-01-30T09:06:16;8.80;99.90
84916;DHT22;75178;53.054;5.846;2024-01-30T09:09:00;8.80;99.90
84916;DHT22;75178;53.054;5.846;2024-01-30T09:11:44;8.90;99.90
84916;DHT22;75178;53.054;5.846;2024-01-30T09:14:29;8.90;99.90
84916;DHT22;75178;53.054;5.846;2024-01-30T09:17:14;9.00;99.90
84916;DHT22;75178;53.054;5.846;2024-01-30T09:19:58;9.00;99.90
84916;DHT22;75178;53.054;5.846;2024-01-30T09:22:42;9.00;99.90
84916;DHT22;75178;53.054;5.846;2024-01-30T09:25:26;9.10;99.90
84916;DHT22;75178;53.054;5.846;2024-01-30T09:28:10;9.10;99.90
84916;DHT22;75178;53.054;5.846;2024-01-30T09:30:56;9.10;99.90
84916;DHT22;75178;53.054;5.846;2024-01-30T09:33:40;9.20;99.90
84916;DHT22;75178;53.054;5.846;2024-01-30T09:36:24;9.20;99.90
84916;DHT22;75178;53.054;5.846;2024-01-30T09:39:08;9.20;99.90
84916;DHT22;75178;53.054;5.846;2024-01-30T09:42:00;9.30;99.90
84916;DHT22;75178;53.054;5.846;2024-01-30T09:44:47;9.30;99.90
84916;DHT22;75178;53.054;5.846;2024-01-30T09:47:40;9.30;99.90
84916;DHT22;75178;53.054;5.846;2024-01-30T09:50:26;9.40;99.90
84916;DHT22;75178;53.054;5.846;2024-01-30T09:53:11;9.40;99.90
84916;DHT22;75178;53.054;5.846;2024-01-30T09:55:57;9.40;99.90
84916;DHT22;75178;53.054;5.846;2024-01-30T09:58:41;9.40;99.90
84916;DHT22;75178;53.054;5.846;2024-01-30T10:01:25;9.40;99.90
84916;DHT22;75178;53.054;5.846;2024-01-30T10:04:11;9.40;99.90
84916;DHT22;75178;53.054;5.846;2024-01-30T10:06:56;9.40;99.90
84916;DHT22;75178;53.054;5.846;2024-01-30T10:09:40;9.40;99.90
84916;DHT22;75178;53.054;5.846;2024-01-30T10:12:27;9.40;99.90
84916;DHT22;75178;53.054;5.846;2024-01-30T10:15:13;9.40;99.90
84916;DHT22;75178;53.054;5.846;2024-01-30T10:17:57;9.40;99.90
84916;DHT22;75178;53.054;5.846;2024-01-30T10:20:43;9.40;99.90
84916;DHT22;75178;53.054;5.846;2024-01-30T10:23:29;9.40;99.90
84916;DHT22;75178;53.054;5.846;2024-01-30T10:26:15;9.30;99.90
84916;DHT22;75178;53.054;5.846;2024-01-30T10:28:59;9.40;99.90
84916;DHT22;75178;53.054;5.846;2024-01-30T10:31:44;9.30;99.90
84916;DHT22;75178;53.054;5.846;2024-01-30T10:34:28;9.30;99.90
84916;DHT22;75178;53.054;5.846;2024-01-30T10:37:15;9.30;99.90
84916;DHT22;75178;53.054;5.846;2024-01-30T10:40:02;9.30;99.90
84916;DHT22;75178;53.054;5.846;2024-01-30T10:42:47;9.30;99.90
84916;DHT22;75178;53.054;5.846;2024-01-30T10:45:33;9.20;99.90
84916;DHT22;75178;53.054;5.846;2024-01-30T10:48:24;9.20;99.90
84916;DHT22;75178;53.054;5.846;2024-01-30T10:51:10;9.20;99.90
84916;DHT22;75178;53.054;5.846;2024-01-30T10:53:57;9.20;99.90
84916;DHT22;75178;53.054;5.846;2024-01-30T10:56:42;9.10;99.90
84916;DHT22;75178;53.054;5.846;2024-01-30T10:59:26;9.20;99.90
84916;DHT22;75178;53.054;5.846;2024-01-30T11:02:11;9.10;99.90
84916;DHT22;75178;53.054;5.846;2024-01-30T11:04:57;9.10;99.90
84916;DHT22;75178;53.054;5.846;2024-01-30T11:07:41;9.00;99.90
84916;DHT22;75178;53.054;5.846;2024-01-30T11:10:27;9.00;99.90
84916;DHT22;75178;53.054;5.846;2024-01-30T11:13:13;9.00;99.90
84916;DHT22;75178;53.054;5.846;2024-01-30T11:16:00;9.00;99.90
84916;DHT22;75178;53.054;5.846;2024-01-30T11:18:50;9.00;99.90
84916;DHT22;75178;53.054;5.846;2024-01-30T11:21:41;8.90;99.90
84916;DHT22;75178;53.054;5.846;2024-01-30T11:24:26;8.90;99.90
84916;DHT22;75178;53.054;5.846;2024-01-30T11:27:11;8.90;99.90
84916;DHT22;75178;53.054;5.846;2024-01-30T11:30:01;8.90;99.90
84916;DHT22;75178;53.054;5.846;2024-01-30T11:32:45;9.00;99.90
84916;DHT22;75178;53.054;5.846;2024-01-30T11:35:31;8.90;99.90
84916;DHT22;75178;53.054;5.846;2024-01-30T11:38:16;8.90;99.90
84916;DHT22;75178;53.054;5.846;2024-01-30T11:41:00;9.00;99.90
84916;DHT22;75178;53.054;5.846;2024-01-30T11:43:52;9.00;99.90
84916;DHT22;75178;53.054;5.846;2024-01-30T11:46:37;9.00;99.90
84916;DHT22;75178;53.054;5.846;2024-01-30T11:49:21;8.90;99.90
84916;DHT22;75178;53.054;5.846;2024-01-30T11:52:07;9.00;99.90
84916;DHT22;75178;53.054;5.846;2024-01-30T11:54:51;8.90;99.90
84916;DHT22;75178;53.054;5.846;2024-01-30T11:57:35;8.90;99.90
84916;DHT22;75178;53.054;5.846;2024-01-30T12:00:21;8.90;99.90
84916;DHT22;75178;53.054;5.846;2024-01-30T12:03:05;8.90;99.90
84916;DHT22;75178;53.054;5.846;2024-01-30T12:05:55;8.90;99.90
84916;DHT22;75178;53.054;5.846;2024-01-30T12:08:39;9.00;99.90
84916;DHT22;75178;53.054;5.846;2024-01-30T12:11:23;9.00;99.90
84916;DHT22;75178;53.054;5.846;2024-01-30T12:14:07;9.00;99.90
84916;DHT22;75178;53.054;5.846;2024-01-30T12:16:53;9.00;99.90
84916;DHT22;75178;53.054;5.846;2024-01-30T12:19:37;9.00;99.90
84916;DHT22;75178;53.054;5.846;2024-01-30T12:22:21;9.00;99.90
84916;DHT22;75178;53.054;5.846;2024-01-30T12:25:08;9.00;99.90
84916;DHT22;75178;53.054;5.846;2024-01-30T12:27:52;9.00;99.90
84916;DHT22;75178;53.054;5.846;2024-01-30T12:30:37;9.10;99.90
84916;DHT22;75178;53.054;5.846;2024-01-30T12:33:26;9.10;99.90
84916;DHT22;75178;53.054;5.846;2024-01-30T12:36:11;9.10;99.90
84916;DHT22;75178;53.054;5.846;2024-01-30T12:38:56;9.10;99.90
84916;DHT22;75178;53.054;5.846;2024-01-30T12:41:41;9.10;99.90
84916;DHT22;75178;53.054;5.846;2024-01-30T12:44:25;9.10;99.90
84916;DHT22;75178;53.054;5.846;2024-01-30T12:47:09;9.10;99.90
84916;DHT22;75178;53.054;5.846;2024-01-30T12:49:55;9.10;99.90
84916;DHT22;75178;53.054;5.846;2024-01-30T12:52:40;9.20;99.90
84916;DHT22;75178;53.054;5.846;2024-01-30T12:55:24;9.10;99.90
84916;DHT22;75178;53.054;5.846;2024-01-30T12:58:08;9.10;99.90
84916;DHT22;75178;53.054;5.846;2024-01-30T13:00:53;9.00;99.90
84916;DHT22;75178;53.054;5.846;2024-01-30T13:03:38;9.10;99.90
84916;DHT22;75178;53.054;5.846;2024-01-30T13:06:23;9.00;99.90
84916;DHT22;75178;53.054;5.846;2024-01-30T13:09:07;9.00;99.90
84916;DHT22;75178;53.054;5.846;2024-01-30T13:11:51;8.90;99.90
84916;DHT22;75178;53.054;5.846;2024-01-30T13:14:35;8.90;99.90
84916;DHT22;75178;53.054;5.846;2024-01-30T13:17:19;8.80;99.90
84916;DHT22;75178;53.054;5.846;2024-01-30T13:20:04;8.80;99.90
84916;DHT22;75178;53.054;5.846;2024-01-30T13:22:50;8.70;99.90
84916;DHT22;75178;53.054;5.846;2024-01-30T13:25:34;8.60;99.90
84916;DHT22;75178;53.054;5.846;2024-01-30T13:28:18;8.60;99.90
84916;DHT22;75178;53.054;5.846;2024-01-30T13:31:03;8.50;99.90
84916;DHT22;75178;53.054;5.846;2024-01-30T13:33:47;8.40;99.90
84916;DHT22;75178;53.054;5.846;2024-01-30T13:36:31;8.40;99.90
84916;DHT22;75178;53.054;5.846;2024-01-30T13:39:17;8.30;99.90
84916;DHT22;75178;53.054;5.846;2024-01-30T13:42:01;8.30;99.90
84916;DHT22;75178;53.054;5.846;2024-01-30T13:44:46;8.30;99.90
84916;DHT22;75178;53.054;5.846;2024-01-30T13:47:30;8.20;99.90
84916;DHT22;75178;53.054;5.846;2024-01-30T13:50:14;8.20;99.90
84916;DHT22;75178;53.054;5.846;2024-01-30T13:52:59;8.20;99.90
84916;DHT22;75178;53.054;5.846;2024-01-30T13:55:44;8.10;99.90
84916;DHT22;75178;53.054;5.846;2024-01-30T13:58:28;8.10;99.90
84916;DHT22;75178;53.054;5.846;2024-01-30T14:01:13;8.10;99.90
84916;DHT22;75178;53.054;5.846;2024-01-30T14:03:57;8.00;99.90
84916;DHT22;75178;53.054;5.846;2024-01-30T14:06:41;8.00;99.90
84916;DHT22;75178;53.054;5.846;2024-01-30T14:09:25;8.00;99.90
84916;DHT22;75178;53.054;5.846;2024-01-30T14:12:10;8.00;99.90
84916;DHT22;75178;53.054;5.846;2024-01-30T14:14:55;8.10;99.90
84916;DHT22;75178;53.054;5.846;2024-01-30T14:17:39;8.00;99.90
84916;DHT22;75178;53.054;5.846;2024-01-30T14:20:23;8.00;99.90
84916;DHT22;75178;53.054;5.846;2024-01-30T14:23:07;8.00;99.90
84916;DHT22;75178;53.054;5.846;2024-01-30T14:25:51;8.00;99.90
84916;DHT22;75178;53.054;5.846;2024-01-30T14:28:36;8.00;99.90
84916;DHT22;75178;53.054;5.846;2024-01-30T14:31:21;8.00;99.90
84916;DHT22;75178;53.054;5.846;2024-01-30T14:34:05;8.00;99.90
84916;DHT22;75178;53.054;5.846;2024-01-30T14:36:49;8.00;99.90
84916;DHT22;75178;53.054;5.846;2024-01-30T14:39:33;8.10;99.90
84916;DHT22;75178;53.054;5.846;2024-01-30T14:42:17;8.00;99.90
84916;DHT22;75178;53.054;5.846;2024-01-30T14:45:03;8.10;99.90
84916;DHT22;75178;53.054;5.846;2024-01-30T14:47:48;8.10;99.90
84916;DHT22;75178;53.054;5.846;2024-01-30T14:50:32;8.10;99.90
84916;DHT22;75178;53.054;5.846;2024-01-30T14:53:16;8.10;99.90
84916;DHT22;75178;53.054;5.846;2024-01-30T14:56:00;8.10;99.90
84916;DHT22;75178;53.054;5.846;2024-01-30T14:58:44;8.10;99.90
84916;DHT22;75178;53.054;5.846;2024-01-30T15:01:29;8.20;99.90
84916;DHT22;75178;53.054;5.846;2024-01-30T15:04:14;8.20;99.90
84916;DHT22;75178;53.054;5.846;2024-01-30T15:06:58;8.20;99.90
84916;DHT22;75178;53.054;5.846;2024-01-30T15:09:42;8.10;99.90
84916;DHT22;75178;53.054;5.846;2024-01-30T15:12:26;8.10;99.90
84916;DHT22;75178;53.054;5.846;2024-01-30T15:15:10;8.10;99.90
84916;DHT22;75178;53.054;5.846;2024-01-30T15:17:55;8.10;99.90
84916;DHT22;75178;53.054;5.846;2024-01-30T15:20:40;8.20;99.90
84916;DHT22;75178;53.054;5.846;2024-01-30T15:23:24;8.10;99.90
84916;DHT22;75178;53.054;5.846;2024-01-30T15:26:08;8.10;99.90
84916;DHT22;75178;53.054;5.846;2024-01-30T15:28:52;8.10;99.90
84916;DHT22;75178;53.054;5.846;2024-01-30T15:31:36;8.00;99.90
84916;DHT22;75178;53.054;5.846;2024-01-30T15:34:22;8.00;99.90
84916;DHT22;75178;53.054;5.846;2024-01-30T15:37:06;8.00;99.90
84916;DHT22;75178;53.054;5.846;2024-01-30T15:39:50;8.00;99.90
84916;DHT22;75178;53.054;5.846;2024-01-30T15:42:34;7.90;99.90
84916;DHT22;75178;53.054;5.846;2024-01-30T15:45:19;7.90;99.90
84916;DHT22;75178;53.054;5.846;2024-01-30T15:48:04;7.90;99.90
84916;DHT22;75178;53.054;5.846;2024-01-30T15:50:49;7.90;99.90
84916;DHT22;75178;53.054;5.846;2024-01-30T15:53:33;7.80;99.90
84916;DHT22;75178;53.054;5.846;2024-01-30T15:56:18;7.70;99.90
84916;DHT22;75178;53.054;5.846;2024-01-30T15:59:02;7.70;99.90
84916;DHT22;75178;53.054;5.846;2024-01-30T16:01:46;7.70;99.90
84916;DHT22;75178;53.054;5.846;2024-01-30T16:04:30;7.70;99.90
84916;DHT22;75178;53.054;5.846;2024-01-30T16:07:16;7.70;99.90
84916;DHT22;75178;53.054;5.846;2024-01-30T16:10:00;7.60;99.90
84916;DHT22;75178;53.054;5.846;2024-01-30T16:12:45;7.60;99.90
84916;DHT22;75178;53.054;5.846;2024-01-30T16:15:29;7.60;99.90
84916;DHT22;75178;53.054;5.846;2024-01-30T16:18:13;7.60;99.90
84916;DHT22;75178;53.054;5.846;2024-01-30T16:20:58;7.50;99.90
84916;DHT22;75178;53.054;5.846;2024-01-30T16:23:43;7.50;99.90
84916;DHT22;75178;53.054;5.846;2024-01-30T16:26:27;7.50;99.90
84916;DHT22;75178;53.054;5.846;2024-01-30T16:29:12;7.40;99.90
84916;DHT22;75178;53.054;5.846;2024-01-30T16:31:56;7.50;99.90
84916;DHT22;75178;53.054;5.846;2024-01-30T16:34:40;7.40;99.90
84916;DHT22;75178;53.054;5.846;2024-01-30T16:37:24;7.40;99.90
84916;DHT22;75178;53.054;5.846;2024-01-30T16:40:10;7.40;99.90
84916;DHT22;75178;53.054;5.846;2024-01-30T16:42:55;7.40;99.90
84916;DHT22;75178;53.054;5.846;2024-01-30T16:45:39;7.30;99.90
84916;DHT22;75178;53.054;5.846;2024-01-30T16:48:23;7.30;99.90
84916;DHT22;75178;53.054;5.846;2024-01-30T16:51:07;7.30;99.90
84916;DHT22;75178;53.054;5.846;2024-01-30T16:53:51;7.30;99.90
84916;DHT22;75178;53.054;5.846;2024-01-30T16:56:37;7.20;99.90
84916;DHT22;75178;53.054;5.846;2024-01-30T16:59:21;7.20;99.90
84916;DHT22;75178;53.054;5.846;2024-01-30T17:02:05;7.20;99.90
84916;DHT22;75178;53.054;5.846;2024-01-30T17:04:50;7.20;99.90
84916;DHT22;75178;53.054;5.846;2024-01-30T17:07:34;7.20;99.90
84916;DHT22;75178;53.054;5.846;2024-01-30T17:10:18;7.10;99.90
84916;DHT22;75178;53.054;5.846;2024-01-30T17:13:04;7.10;99.90
84916;DHT22;75178;53.054;5.846;2024-01-30T17:15:48;7.10;99.90
84916;DHT22;75178;53.054;5.846;2024-01-30T17:18:32;7.10;99.90
84916;DHT22;75178;53.054;5.846;2024-01-30T17:21:17;7.10;99.90
84916;DHT22;75178;53.054;5.846;2024-01-30T17:24:01;7.10;99.90
84916;DHT22;75178;53.054;5.846;2024-01-30T17:26:45;7.10;99.90
84916;DHT22;75178;53.054;5.846;2024-01-30T17:29:31;7.00;99.90
84916;DHT22;75178;53.054;5.846;2024-01-30T17:32:15;7.00;99.90
84916;DHT22;75178;53.054;5.846;2024-01-30T17:35:00;7.00;99.90
84916;DHT22;75178;53.054;5.846;2024-01-30T17:37:44;7.00;99.90
84916;DHT22;75178;53.054;5.846;2024-01-30T17:40:28;7.00;99.90